sensor_id;sensor_type;location;lat;lon;timestamp;P1;durP1;ratioP1;P2;durP2;ratioP2
63444;SDS011;49573;47.682;9.170;2023-09-08T00:00:44;7.40;;;6.60;;
63444;SDS011;49573;47.682;9.170;2023-09-08T00:03:31;8.80;;;6.22;;
63444;SDS011;49573;47.682;9.170;2023-09-08T00:06:18;7.78;;;6.18;;
63444;SDS011;49573;47.682;9.170;2023-09-08T00:09:04;7.22;;;6.53;;
63444;SDS011;49573;47.682;9.170;2023-09-08T00:11:51;8.43;;;6.32;;
63444;SDS011;49573;47.682;9.170;2023-09-08T00:14:39;10.00;;;7.03;;
63444;SDS011;49573;47.682;9.170;2023-09-08T00:17:25;8.70;;;6.70;;
63444;SDS011;49573;47.682;9.170;2023-09-08T00:20:11;8.48;;;6.50;;
63444;SDS011;49573;47.682;9.170;2023-09-08T00:25:44;7.15;;;6.45;;
63444;SDS011;49573;47.682;9.170;2023-09-08T00:28:32;10.23;;;6.68;;
63444;SDS011;49573;47.682;9.170;2023-09-08T00:31:18;8.32;;;6.35;;
63444;SDS011;49573;47.682;9.170;2023-09-08T00:34:04;8.35;;;6.63;;
63444;SDS011;49573;47.682;9.170;2023-09-08T00:36:50;7.88;;;6.47;;
63444;SDS011;49573;47.682;9.170;2023-09-08T00:39:37;9.20;;;6.93;;
63444;SDS011;49573;47.682;9.170;2023-09-08T00:45:11;8.43;;;6.57;;
63444;SDS011;49573;47.682;9.170;2023-09-08T00:47:57;7.88;;;6.60;;
63444;SDS011;49573;47.682;9.170;2023-09-08T00:50:43;9.43;;;6.90;;
63444;SDS011;49573;47.682;9.170;2023-09-08T00:53:30;6.97;;;6.28;;
63444;SDS011;49573;47.682;9.170;2023-09-08T00:56:16;9.60;;;7.22;;
63444;SDS011;49573;47.682;9.170;2023-09-08T00:59:03;8.80;;;6.90;;
63444;SDS011;49573;47.682;9.170;2023-09-08T01:04:37;8.27;;;6.40;;
63444;SDS011;49573;47.682;9.170;2023-09-08T01:07:26;9.68;;;6.63;;
63444;SDS011;49573;47.682;9.170;2023-09-08T01:10:14;7.32;;;6.57;;
63444;SDS011;49573;47.682;9.170;2023-09-08T01:13:01;9.18;;;7.40;;
63444;SDS011;49573;47.682;9.170;2023-09-08T01:15:47;8.48;;;7.15;;
63444;SDS011;49573;47.682;9.170;2023-09-08T01:18:36;7.72;;;6.25;;
63444;SDS011;49573;47.682;9.170;2023-09-08T01:21:37;9.10;;;6.50;;
63444;SDS011;49573;47.682;9.170;2023-09-08T01:28:01;8.23;;;6.78;;
63444;SDS011;49573;47.682;9.170;2023-09-08T01:30:49;7.20;;;6.28;;
63444;SDS011;49573;47.682;9.170;2023-09-08T01:33:35;7.47;;;6.43;;
63444;SDS011;49573;47.682;9.170;2023-09-08T01:36:22;9.05;;;6.65;;
63444;SDS011;49573;47.682;9.170;2023-09-08T01:39:08;9.18;;;6.70;;
63444;SDS011;49573;47.682;9.170;2023-09-08T01:41:56;9.65;;;7.10;;
63444;SDS011;49573;47.682;9.170;2023-09-08T01:44:42;10.23;;;7.35;;
63444;SDS011;49573;47.682;9.170;2023-09-08T01:47:28;8.40;;;6.50;;
63444;SDS011;49573;47.682;9.170;2023-09-08T01:50:15;9.57;;;6.75;;
63444;SDS011;49573;47.682;9.170;2023-09-08T01:53:07;8.68;;;6.57;;
63444;SDS011;49573;47.682;9.170;2023-09-08T01:55:53;7.82;;;6.47;;
63444;SDS011;49573;47.682;9.170;2023-09-08T01:58:40;7.57;;;6.35;;
63444;SDS011;49573;47.682;9.170;2023-09-08T02:01:26;9.82;;;6.85;;
63444;SDS011;49573;47.682;9.170;2023-09-08T02:04:12;8.60;;;6.30;;
63444;SDS011;49573;47.682;9.170;2023-09-08T02:06:58;9.35;;;6.93;;
63444;SDS011;49573;47.682;9.170;2023-09-08T02:09:45;8.85;;;6.72;;
63444;SDS011;49573;47.682;9.170;2023-09-08T02:12:31;8.32;;;6.47;;
63444;SDS011;49573;47.682;9.170;2023-09-08T02:15:18;7.50;;;6.17;;
63444;SDS011;49573;47.682;9.170;2023-09-08T02:18:05;10.07;;;7.00;;
63444;SDS011;49573;47.682;9.170;2023-09-08T02:20:52;7.75;;;6.15;;
63444;SDS011;49573;47.682;9.170;2023-09-08T02:23:38;10.48;;;6.60;;
63444;SDS011;49573;47.682;9.170;2023-09-08T02:26:24;7.77;;;6.53;;
63444;SDS011;49573;47.682;9.170;2023-09-08T02:29:11;7.93;;;6.65;;
63444;SDS011;49573;47.682;9.170;2023-09-08T02:31:59;7.30;;;6.07;;
63444;SDS011;49573;47.682;9.170;2023-09-08T02:34:45;8.25;;;6.75;;
63444;SDS011;49573;47.682;9.170;2023-09-08T02:37:33;8.82;;;6.95;;
63444;SDS011;49573;47.682;9.170;2023-09-08T02:40:19;7.00;;;6.30;;
63444;SDS011;49573;47.682;9.170;2023-09-08T02:43:06;6.93;;;6.03;;
63444;SDS011;49573;47.682;9.170;2023-09-08T02:45:52;8.63;;;6.38;;
63444;SDS011;49573;47.682;9.170;2023-09-08T02:48:39;9.88;;;6.20;;
63444;SDS011;49573;47.682;9.170;2023-09-08T02:51:25;7.82;;;6.57;;
63444;SDS011;49573;47.682;9.170;2023-09-08T02:54:11;8.15;;;6.63;;
63444;SDS011;49573;47.682;9.170;2023-09-08T02:56:58;10.45;;;7.10;;
63444;SDS011;49573;47.682;9.170;2023-09-08T02:59:48;9.80;;;6.72;;
63444;SDS011;49573;47.682;9.170;2023-09-08T03:02:35;10.07;;;6.68;;
63444;SDS011;49573;47.682;9.170;2023-09-08T03:05:22;8.00;;;6.35;;
63444;SDS011;49573;47.682;9.170;2023-09-08T03:08:08;8.13;;;6.85;;
63444;SDS011;49573;47.682;9.170;2023-09-08T03:10:55;8.60;;;6.47;;
63444;SDS011;49573;47.682;9.170;2023-09-08T03:13:41;10.02;;;7.13;;
63444;SDS011;49573;47.682;9.170;2023-09-08T03:16:27;7.67;;;6.87;;
63444;SDS011;49573;47.682;9.170;2023-09-08T03:19:13;8.17;;;6.37;;
63444;SDS011;49573;47.682;9.170;2023-09-08T03:22:01;9.07;;;7.70;;
63444;SDS011;49573;47.682;9.170;2023-09-08T03:24:47;9.15;;;7.13;;
63444;SDS011;49573;47.682;9.170;2023-09-08T03:27:34;8.80;;;7.13;;
63444;SDS011;49573;47.682;9.170;2023-09-08T03:30:20;8.30;;;7.40;;
63444;SDS011;49573;47.682;9.170;2023-09-08T03:33:06;8.57;;;7.65;;
63444;SDS011;49573;47.682;9.170;2023-09-08T03:35:52;8.55;;;7.25;;
63444;SDS011;49573;47.682;9.170;2023-09-08T03:38:39;9.02;;;7.32;;
63444;SDS011;49573;47.682;9.170;2023-09-08T03:41:26;10.48;;;7.60;;
63444;SDS011;49573;47.682;9.170;2023-09-08T03:44:12;8.00;;;6.93;;
63444;SDS011;49573;47.682;9.170;2023-09-08T03:46:58;9.23;;;8.10;;
63444;SDS011;49573;47.682;9.170;2023-09-08T03:49:44;8.73;;;7.70;;
63444;SDS011;49573;47.682;9.170;2023-09-08T03:52:30;10.20;;;7.00;;
63444;SDS011;49573;47.682;9.170;2023-09-08T03:55:18;10.32;;;7.22;;
63444;SDS011;49573;47.682;9.170;2023-09-08T03:58:04;9.80;;;8.23;;
63444;SDS011;49573;47.682;9.170;2023-09-08T04:00:50;9.65;;;7.28;;
63444;SDS011;49573;47.682;9.170;2023-09-08T04:03:36;9.68;;;7.30;;
63444;SDS011;49573;47.682;9.170;2023-09-08T04:06:22;9.57;;;8.02;;
63444;SDS011;49573;47.682;9.170;2023-09-08T04:09:09;7.97;;;7.13;;
63444;SDS011;49573;47.682;9.170;2023-09-08T04:11:57;9.95;;;7.25;;
63444;SDS011;49573;47.682;9.170;2023-09-08T04:14:43;9.48;;;7.40;;
63444;SDS011;49573;47.682;9.170;2023-09-08T04:17:29;11.95;;;8.48;;
63444;SDS011;49573;47.682;9.170;2023-09-08T04:20:15;8.23;;;7.35;;
63444;SDS011;49573;47.682;9.170;2023-09-08T04:23:01;9.80;;;7.38;;
63444;SDS011;49573;47.682;9.170;2023-09-08T04:25:47;7.90;;;6.68;;
63444;SDS011;49573;47.682;9.170;2023-09-08T04:28:35;8.80;;;6.95;;
63444;SDS011;49573;47.682;9.170;2023-09-08T04:31:21;8.45;;;6.97;;
63444;SDS011;49573;47.682;9.170;2023-09-08T04:34:07;9.52;;;6.70;;
63444;SDS011;49573;47.682;9.170;2023-09-08T04:36:53;10.50;;;7.28;;
63444;SDS011;49573;47.682;9.170;2023-09-08T04:39:39;8.47;;;6.90;;
63444;SDS011;49573;47.682;9.170;2023-09-08T04:42:25;8.70;;;7.50;;
63444;SDS011;49573;47.682;9.170;2023-09-08T04:45:13;9.73;;;7.13;;
63444;SDS011;49573;47.682;9.170;2023-09-08T04:47:59;8.18;;;6.93;;
63444;SDS011;49573;47.682;9.170;2023-09-08T04:50:45;8.80;;;7.30;;
63444;SDS011;49573;47.682;9.170;2023-09-08T04:53:31;8.73;;;6.97;;
63444;SDS011;49573;47.682;9.170;2023-09-08T04:56:18;10.13;;;7.35;;
63444;SDS011;49573;47.682;9.170;2023-09-08T04:59:04;10.88;;;7.55;;
63444;SDS011;49573;47.682;9.170;2023-09-08T05:01:52;8.10;;;6.87;;
63444;SDS011;49573;47.682;9.170;2023-09-08T05:04:38;8.85;;;6.85;;
63444;SDS011;49573;47.682;9.170;2023-09-08T05:07:24;8.83;;;7.17;;
63444;SDS011;49573;47.682;9.170;2023-09-08T05:10:10;9.23;;;7.13;;
63444;SDS011;49573;47.682;9.170;2023-09-08T05:12:56;8.90;;;7.13;;
63444;SDS011;49573;47.682;9.170;2023-09-08T05:15:42;10.23;;;7.03;;
63444;SDS011;49573;47.682;9.170;2023-09-08T05:18:30;10.90;;;7.80;;
63444;SDS011;49573;47.682;9.170;2023-09-08T05:21:16;8.82;;;7.45;;
63444;SDS011;49573;47.682;9.170;2023-09-08T05:24:03;10.13;;;7.00;;
63444;SDS011;49573;47.682;9.170;2023-09-08T05:26:49;8.43;;;6.97;;
63444;SDS011;49573;47.682;9.170;2023-09-08T05:29:35;11.48;;;7.72;;
63444;SDS011;49573;47.682;9.170;2023-09-08T05:32:21;9.10;;;7.70;;
63444;SDS011;49573;47.682;9.170;2023-09-08T05:35:09;8.73;;;7.83;;
63444;SDS011;49573;47.682;9.170;2023-09-08T05:37:55;9.80;;;7.72;;
63444;SDS011;49573;47.682;9.170;2023-09-08T05:40:41;10.80;;;8.00;;
63444;SDS011;49573;47.682;9.170;2023-09-08T05:46:14;10.20;;;7.43;;
63444;SDS011;49573;47.682;9.170;2023-09-08T05:49:00;9.18;;;7.82;;
63444;SDS011;49573;47.682;9.170;2023-09-08T05:51:48;10.63;;;7.77;;
63444;SDS011;49573;47.682;9.170;2023-09-08T05:54:34;8.88;;;7.35;;
63444;SDS011;49573;47.682;9.170;2023-09-08T05:57:21;9.15;;;7.82;;
63444;SDS011;49573;47.682;9.170;2023-09-08T06:00:07;9.13;;;7.17;;
63444;SDS011;49573;47.682;9.170;2023-09-08T06:05:40;13.15;;;8.15;;
63444;SDS011;49573;47.682;9.170;2023-09-08T06:08:27;9.70;;;7.43;;
63444;SDS011;49573;47.682;9.170;2023-09-08T06:11:13;10.52;;;7.28;;
63444;SDS011;49573;47.682;9.170;2023-09-08T06:14:00;10.13;;;7.57;;
63444;SDS011;49573;47.682;9.170;2023-09-08T06:16:46;9.37;;;7.67;;
63444;SDS011;49573;47.682;9.170;2023-09-08T06:19:32;8.30;;;6.67;;
63444;SDS011;49573;47.682;9.170;2023-09-08T06:22:18;10.13;;;6.73;;
63444;SDS011;49573;47.682;9.170;2023-09-08T06:25:05;10.03;;;7.43;;
63444;SDS011;49573;47.682;9.170;2023-09-08T06:27:52;9.48;;;7.57;;
63444;SDS011;49573;47.682;9.170;2023-09-08T06:30:38;11.02;;;7.75;;
63444;SDS011;49573;47.682;9.170;2023-09-08T06:33:27;8.80;;;7.55;;
63444;SDS011;49573;47.682;9.170;2023-09-08T06:36:13;9.82;;;7.60;;
63444;SDS011;49573;47.682;9.170;2023-09-08T06:38:59;8.98;;;7.47;;
63444;SDS011;49573;47.682;9.170;2023-09-08T06:41:46;10.93;;;8.40;;
63444;SDS011;49573;47.682;9.170;2023-09-08T06:44:32;11.85;;;9.30;;
63444;SDS011;49573;47.682;9.170;2023-09-08T06:47:18;10.68;;;9.57;;
63444;SDS011;49573;47.682;9.170;2023-09-08T06:50:05;15.05;;;11.80;;
63444;SDS011;49573;47.682;9.170;2023-09-08T06:52:52;14.02;;;11.57;;
63444;SDS011;49573;47.682;9.170;2023-09-08T06:55:38;12.25;;;10.10;;
63444;SDS011;49573;47.682;9.170;2023-09-08T06:58:26;13.73;;;11.80;;
63444;SDS011;49573;47.682;9.170;2023-09-08T07:01:12;13.02;;;10.90;;
63444;SDS011;49573;47.682;9.170;2023-09-08T07:03:58;14.20;;;12.13;;
63444;SDS011;49573;47.682;9.170;2023-09-08T07:06:44;13.57;;;11.27;;
63444;SDS011;49573;47.682;9.170;2023-09-08T07:09:31;13.50;;;10.50;;
63444;SDS011;49573;47.682;9.170;2023-09-08T07:12:17;15.35;;;11.93;;
63444;SDS011;49573;47.682;9.170;2023-09-08T07:15:05;13.43;;;11.55;;
63444;SDS011;49573;47.682;9.170;2023-09-08T07:17:52;14.85;;;11.68;;
63444;SDS011;49573;47.682;9.170;2023-09-08T07:20:38;12.88;;;10.38;;
63444;SDS011;49573;47.682;9.170;2023-09-08T07:23:24;14.52;;;11.18;;
63444;SDS011;49573;47.682;9.170;2023-09-08T07:26:10;16.37;;;12.90;;
63444;SDS011;49573;47.682;9.170;2023-09-08T07:28:56;18.08;;;11.95;;
63444;SDS011;49573;47.682;9.170;2023-09-08T07:31:43;17.73;;;12.63;;
63444;SDS011;49573;47.682;9.170;2023-09-08T07:34:29;14.55;;;12.60;;
63444;SDS011;49573;47.682;9.170;2023-09-08T07:37:16;13.13;;;11.60;;
63444;SDS011;49573;47.682;9.170;2023-09-08T07:40:02;17.17;;;11.98;;
63444;SDS011;49573;47.682;9.170;2023-09-08T07:45:34;15.13;;;11.27;;
63444;SDS011;49573;47.682;9.170;2023-09-08T07:48:22;15.20;;;9.98;;
63444;SDS011;49573;47.682;9.170;2023-09-08T07:51:08;12.27;;;9.90;;
63444;SDS011;49573;47.682;9.170;2023-09-08T07:53:54;14.15;;;10.23;;
63444;SDS011;49573;47.682;9.170;2023-09-08T07:56:41;10.38;;;8.43;;
63444;SDS011;49573;47.682;9.170;2023-09-08T07:59:27;10.52;;;8.15;;
63444;SDS011;49573;47.682;9.170;2023-09-08T08:02:13;10.02;;;8.73;;
63444;SDS011;49573;47.682;9.170;2023-09-08T08:05:00;10.55;;;8.07;;
63444;SDS011;49573;47.682;9.170;2023-09-08T08:07:46;9.85;;;8.75;;
63444;SDS011;49573;47.682;9.170;2023-09-08T08:10:34;10.60;;;8.40;;
63444;SDS011;49573;47.682;9.170;2023-09-08T08:13:20;11.18;;;8.18;;
63444;SDS011;49573;47.682;9.170;2023-09-08T08:16:06;9.52;;;8.13;;
63444;SDS011;49573;47.682;9.170;2023-09-08T08:18:52;9.73;;;8.30;;
63444;SDS011;49573;47.682;9.170;2023-09-08T08:21:39;10.27;;;8.10;;
63444;SDS011;49573;47.682;9.170;2023-09-08T08:24:27;10.82;;;8.52;;
63444;SDS011;49573;47.682;9.170;2023-09-08T08:27:13;9.35;;;7.88;;
63444;SDS011;49573;47.682;9.170;2023-09-08T08:30:00;10.43;;;7.95;;
63444;SDS011;49573;47.682;9.170;2023-09-08T08:32:46;10.93;;;7.60;;
63444;SDS011;49573;47.682;9.170;2023-09-08T08:35:32;9.55;;;7.97;;
63444;SDS011;49573;47.682;9.170;2023-09-08T08:38:19;11.32;;;7.78;;
63444;SDS011;49573;47.682;9.170;2023-09-08T08:41:05;10.18;;;8.00;;
63444;SDS011;49573;47.682;9.170;2023-09-08T08:43:52;12.38;;;8.52;;
63444;SDS011;49573;47.682;9.170;2023-09-08T08:46:38;11.23;;;7.78;;
63444;SDS011;49573;47.682;9.170;2023-09-08T08:49:27;8.55;;;7.35;;
63444;SDS011;49573;47.682;9.170;2023-09-08T08:52:14;9.30;;;8.10;;
63444;SDS011;49573;47.682;9.170;2023-09-08T08:55:02;10.27;;;8.13;;
63444;SDS011;49573;47.682;9.170;2023-09-08T08:57:49;11.35;;;7.60;;
63444;SDS011;49573;47.682;9.170;2023-09-08T09:00:36;11.20;;;8.43;;
63444;SDS011;49573;47.682;9.170;2023-09-08T09:03:24;8.82;;;7.53;;
63444;SDS011;49573;47.682;9.170;2023-09-08T09:06:12;11.23;;;8.00;;
63444;SDS011;49573;47.682;9.170;2023-09-08T09:08:59;9.65;;;7.70;;
63444;SDS011;49573;47.682;9.170;2023-09-08T09:11:47;8.45;;;7.25;;
63444;SDS011;49573;47.682;9.170;2023-09-08T09:14:34;9.48;;;7.68;;
63444;SDS011;49573;47.682;9.170;2023-09-08T09:17:20;9.48;;;7.18;;
63444;SDS011;49573;47.682;9.170;2023-09-08T09:20:13;9.57;;;7.50;;
63444;SDS011;49573;47.682;9.170;2023-09-08T09:23:00;9.45;;;7.50;;
63444;SDS011;49573;47.682;9.170;2023-09-08T09:28:34;10.80;;;8.30;;
63444;SDS011;49573;47.682;9.170;2023-09-08T09:31:32;8.68;;;7.78;;
63444;SDS011;49573;47.682;9.170;2023-09-08T09:34:18;10.35;;;7.85;;
63444;SDS011;49573;47.682;9.170;2023-09-08T09:37:05;10.68;;;7.35;;
63444;SDS011;49573;47.682;9.170;2023-09-08T09:39:53;8.80;;;7.57;;
63444;SDS011;49573;47.682;9.170;2023-09-08T09:42:39;9.43;;;7.75;;
63444;SDS011;49573;47.682;9.170;2023-09-08T09:45:27;10.63;;;7.25;;
63444;SDS011;49573;47.682;9.170;2023-09-08T09:48:13;8.55;;;7.75;;
63444;SDS011;49573;47.682;9.170;2023-09-08T09:51:01;10.57;;;8.15;;
63444;SDS011;49573;47.682;9.170;2023-09-08T09:54:02;10.32;;;8.30;;
63444;SDS011;49573;47.682;9.170;2023-09-08T09:56:49;14.45;;;8.20;;
63444;SDS011;49573;47.682;9.170;2023-09-08T09:59:37;11.35;;;8.20;;
63444;SDS011;49573;47.682;9.170;2023-09-08T10:02:25;8.48;;;7.53;;
63444;SDS011;49573;47.682;9.170;2023-09-08T10:05:12;9.80;;;7.82;;
63444;SDS011;49573;47.682;9.170;2023-09-08T10:07:59;8.95;;;7.88;;
63444;SDS011;49573;47.682;9.170;2023-09-08T10:10:45;10.68;;;8.10;;
63444;SDS011;49573;47.682;9.170;2023-09-08T10:13:33;9.82;;;8.10;;
63444;SDS011;49573;47.682;9.170;2023-09-08T10:16:26;10.20;;;7.60;;
63444;SDS011;49573;47.682;9.170;2023-09-08T10:19:17;11.77;;;7.85;;
63444;SDS011;49573;47.682;9.170;2023-09-08T10:22:04;8.93;;;7.25;;
63444;SDS011;49573;47.682;9.170;2023-09-08T10:24:53;11.35;;;7.85;;
63444;SDS011;49573;47.682;9.170;2023-09-08T10:27:40;9.10;;;7.53;;
63444;SDS011;49573;47.682;9.170;2023-09-08T10:30:27;9.68;;;7.45;;
63444;SDS011;49573;47.682;9.170;2023-09-08T10:33:13;8.13;;;7.28;;
63444;SDS011;49573;47.682;9.170;2023-09-08T10:36:03;10.45;;;7.75;;
63444;SDS011;49573;47.682;9.170;2023-09-08T10:38:50;10.73;;;8.48;;
63444;SDS011;49573;47.682;9.170;2023-09-08T10:41:37;9.07;;;8.15;;
63444;SDS011;49573;47.682;9.170;2023-09-08T10:44:23;8.73;;;7.57;;
63444;SDS011;49573;47.682;9.170;2023-09-08T10:47:09;13.23;;;8.25;;
63444;SDS011;49573;47.682;9.170;2023-09-08T10:49:55;9.15;;;7.82;;
63444;SDS011;49573;47.682;9.170;2023-09-08T10:52:44;8.30;;;7.50;;
63444;SDS011;49573;47.682;9.170;2023-09-08T10:55:34;11.63;;;8.80;;
63444;SDS011;49573;47.682;9.170;2023-09-08T10:58:29;11.93;;;8.80;;
63444;SDS011;49573;47.682;9.170;2023-09-08T11:01:19;9.52;;;7.68;;
63444;SDS011;49573;47.682;9.170;2023-09-08T11:04:11;8.70;;;7.50;;
63444;SDS011;49573;47.682;9.170;2023-09-08T11:07:00;9.52;;;7.32;;
63444;SDS011;49573;47.682;9.170;2023-09-08T11:09:47;9.27;;;8.15;;
63444;SDS011;49573;47.682;9.170;2023-09-08T11:12:33;9.32;;;8.05;;
63444;SDS011;49573;47.682;9.170;2023-09-08T11:15:20;10.75;;;8.00;;
63444;SDS011;49573;47.682;9.170;2023-09-08T11:18:06;12.77;;;7.82;;
63444;SDS011;49573;47.682;9.170;2023-09-08T11:20:53;8.82;;;7.55;;
63444;SDS011;49573;47.682;9.170;2023-09-08T11:23:40;8.85;;;7.70;;
63444;SDS011;49573;47.682;9.170;2023-09-08T11:26:28;10.13;;;7.95;;
63444;SDS011;49573;47.682;9.170;2023-09-08T11:29:14;10.05;;;8.50;;
63444;SDS011;49573;47.682;9.170;2023-09-08T11:32:01;9.63;;;8.63;;
63444;SDS011;49573;47.682;9.170;2023-09-08T11:34:48;9.00;;;7.90;;
63444;SDS011;49573;47.682;9.170;2023-09-08T11:37:36;8.07;;;7.28;;
63444;SDS011;49573;47.682;9.170;2023-09-08T11:40:23;8.32;;;7.35;;
63444;SDS011;49573;47.682;9.170;2023-09-08T11:43:11;8.27;;;7.47;;
63444;SDS011;49573;47.682;9.170;2023-09-08T11:45:57;8.20;;;7.40;;
63444;SDS011;49573;47.682;9.170;2023-09-08T11:48:44;12.18;;;8.27;;
63444;SDS011;49573;47.682;9.170;2023-09-08T11:51:31;8.85;;;7.85;;
63444;SDS011;49573;47.682;9.170;2023-09-08T11:54:17;8.55;;;7.00;;
63444;SDS011;49573;47.682;9.170;2023-09-08T11:57:04;8.02;;;7.20;;
63444;SDS011;49573;47.682;9.170;2023-09-08T11:59:54;8.82;;;7.15;;
63444;SDS011;49573;47.682;9.170;2023-09-08T12:02:41;8.70;;;7.47;;
63444;SDS011;49573;47.682;9.170;2023-09-08T12:08:13;7.68;;;6.88;;
63444;SDS011;49573;47.682;9.170;2023-09-08T12:10:59;8.77;;;7.35;;
63444;SDS011;49573;47.682;9.170;2023-09-08T12:16:33;8.98;;;7.00;;
63444;SDS011;49573;47.682;9.170;2023-09-08T12:19:28;12.10;;;7.70;;
63444;SDS011;49573;47.682;9.170;2023-09-08T12:22:16;10.48;;;7.32;;
63444;SDS011;49573;47.682;9.170;2023-09-08T12:25:07;7.22;;;6.47;;
63444;SDS011;49573;47.682;9.170;2023-09-08T12:27:54;9.02;;;6.70;;
63444;SDS011;49573;47.682;9.170;2023-09-08T12:30:43;7.78;;;7.05;;
63444;SDS011;49573;47.682;9.170;2023-09-08T12:33:41;9.40;;;7.38;;
63444;SDS011;49573;47.682;9.170;2023-09-08T12:36:27;8.02;;;7.22;;
63444;SDS011;49573;47.682;9.170;2023-09-08T12:41:59;9.50;;;6.95;;
63444;SDS011;49573;47.682;9.170;2023-09-08T12:47:31;7.50;;;6.50;;
63444;SDS011;49573;47.682;9.170;2023-09-08T12:53:04;9.18;;;7.03;;
63444;SDS011;49573;47.682;9.170;2023-09-08T12:58:36;8.47;;;6.63;;
63444;SDS011;49573;47.682;9.170;2023-09-08T13:04:08;6.80;;;6.10;;
63444;SDS011;49573;47.682;9.170;2023-09-08T13:06:56;9.15;;;7.18;;
63444;SDS011;49573;47.682;9.170;2023-09-08T13:09:43;10.43;;;7.18;;
63444;SDS011;49573;47.682;9.170;2023-09-08T13:12:29;7.45;;;6.75;;
63444;SDS011;49573;47.682;9.170;2023-09-08T13:15:16;6.65;;;5.80;;
63444;SDS011;49573;47.682;9.170;2023-09-08T13:18:02;7.28;;;6.57;;
63444;SDS011;49573;47.682;9.170;2023-09-08T13:20:49;7.00;;;6.40;;
63444;SDS011;49573;47.682;9.170;2023-09-08T13:23:36;7.13;;;6.05;;
63444;SDS011;49573;47.682;9.170;2023-09-08T13:26:22;7.75;;;5.82;;
63444;SDS011;49573;47.682;9.170;2023-09-08T13:29:08;6.65;;;5.95;;
63444;SDS011;49573;47.682;9.170;2023-09-08T13:31:54;7.10;;;6.40;;
63444;SDS011;49573;47.682;9.170;2023-09-08T13:34:40;7.10;;;6.13;;
63444;SDS011;49573;47.682;9.170;2023-09-08T13:37:28;7.20;;;6.00;;
63444;SDS011;49573;47.682;9.170;2023-09-08T13:40:17;8.05;;;5.90;;
63444;SDS011;49573;47.682;9.170;2023-09-08T13:43:03;6.70;;;6.03;;
63444;SDS011;49573;47.682;9.170;2023-09-08T13:45:49;7.75;;;6.43;;
63444;SDS011;49573;47.682;9.170;2023-09-08T13:48:35;7.15;;;6.45;;
63444;SDS011;49573;47.682;9.170;2023-09-08T13:51:22;6.85;;;6.10;;
63444;SDS011;49573;47.682;9.170;2023-09-08T13:54:09;8.05;;;7.03;;
63444;SDS011;49573;47.682;9.170;2023-09-08T13:57:01;7.35;;;6.18;;
63444;SDS011;49573;47.682;9.170;2023-09-08T13:59:48;9.02;;;6.72;;
63444;SDS011;49573;47.682;9.170;2023-09-08T14:02:35;7.57;;;6.18;;
63444;SDS011;49573;47.682;9.170;2023-09-08T14:05:21;8.98;;;6.60;;
63444;SDS011;49573;47.682;9.170;2023-09-08T14:08:07;6.97;;;6.28;;
63444;SDS011;49573;47.682;9.170;2023-09-08T14:10:53;7.10;;;5.95;;
63444;SDS011;49573;47.682;9.170;2023-09-08T14:13:41;7.03;;;6.07;;
63444;SDS011;49573;47.682;9.170;2023-09-08T14:16:28;7.40;;;6.68;;
63444;SDS011;49573;47.682;9.170;2023-09-08T14:19:14;8.45;;;6.68;;
63444;SDS011;49573;47.682;9.170;2023-09-08T14:22:00;7.60;;;6.20;;
63444;SDS011;49573;47.682;9.170;2023-09-08T14:24:46;7.70;;;6.68;;
63444;SDS011;49573;47.682;9.170;2023-09-08T14:27:32;7.38;;;6.68;;
63444;SDS011;49573;47.682;9.170;2023-09-08T14:30:20;7.50;;;6.63;;
63444;SDS011;49573;47.682;9.170;2023-09-08T14:33:06;6.82;;;6.03;;
63444;SDS011;49573;47.682;9.170;2023-09-08T14:35:53;7.80;;;6.60;;
63444;SDS011;49573;47.682;9.170;2023-09-08T14:38:39;7.03;;;6.10;;
63444;SDS011;49573;47.682;9.170;2023-09-08T14:41:25;8.07;;;6.45;;
63444;SDS011;49573;47.682;9.170;2023-09-08T14:44:11;6.70;;;6.05;;
63444;SDS011;49573;47.682;9.170;2023-09-08T14:46:59;6.85;;;6.15;;
63444;SDS011;49573;47.682;9.170;2023-09-08T14:49:45;7.40;;;6.20;;
63444;SDS011;49573;47.682;9.170;2023-09-08T14:52:31;7.00;;;5.72;;
63444;SDS011;49573;47.682;9.170;2023-09-08T14:55:17;6.45;;;5.80;;
63444;SDS011;49573;47.682;9.170;2023-09-08T14:58:03;7.03;;;5.95;;
63444;SDS011;49573;47.682;9.170;2023-09-08T15:00:49;8.20;;;6.53;;
63444;SDS011;49573;47.682;9.170;2023-09-08T15:03:37;7.22;;;6.13;;
63444;SDS011;49573;47.682;9.170;2023-09-08T15:06:23;6.40;;;5.80;;
63444;SDS011;49573;47.682;9.170;2023-09-08T15:09:09;7.13;;;6.03;;
63444;SDS011;49573;47.682;9.170;2023-09-08T15:11:56;7.05;;;6.05;;
63444;SDS011;49573;47.682;9.170;2023-09-08T15:14:42;7.70;;;6.55;;
63444;SDS011;49573;47.682;9.170;2023-09-08T15:17:28;6.78;;;6.13;;
63444;SDS011;49573;47.682;9.170;2023-09-08T15:20:15;7.05;;;6.35;;
63444;SDS011;49573;47.682;9.170;2023-09-08T15:23:01;6.93;;;6.22;;
63444;SDS011;49573;47.682;9.170;2023-09-08T15:25:51;6.25;;;5.65;;
63444;SDS011;49573;47.682;9.170;2023-09-08T15:28:38;6.85;;;6.15;;
63444;SDS011;49573;47.682;9.170;2023-09-08T15:31:24;7.03;;;5.97;;
63444;SDS011;49573;47.682;9.170;2023-09-08T15:34:11;6.35;;;5.68;;
63444;SDS011;49573;47.682;9.170;2023-09-08T15:36:59;6.10;;;5.50;;
63444;SDS011;49573;47.682;9.170;2023-09-08T15:39:45;7.65;;;6.22;;
63444;SDS011;49573;47.682;9.170;2023-09-08T15:42:31;9.55;;;6.40;;
63444;SDS011;49573;47.682;9.170;2023-09-08T15:45:17;8.30;;;6.38;;
63444;SDS011;49573;47.682;9.170;2023-09-08T15:48:03;7.10;;;5.97;;
63444;SDS011;49573;47.682;9.170;2023-09-08T15:50:50;6.50;;;5.78;;
63444;SDS011;49573;47.682;9.170;2023-09-08T15:53:37;7.20;;;6.00;;
63444;SDS011;49573;47.682;9.170;2023-09-08T15:56:24;8.50;;;5.57;;
63444;SDS011;49573;47.682;9.170;2023-09-08T15:59:10;7.20;;;5.93;;
63444;SDS011;49573;47.682;9.170;2023-09-08T16:01:56;6.45;;;5.72;;
63444;SDS011;49573;47.682;9.170;2023-09-08T16:04:43;6.47;;;5.78;;
63444;SDS011;49573;47.682;9.170;2023-09-08T16:07:29;6.50;;;5.78;;
63444;SDS011;49573;47.682;9.170;2023-09-08T16:10:16;8.40;;;6.20;;
63444;SDS011;49573;47.682;9.170;2023-09-08T16:13:02;7.80;;;7.00;;
63444;SDS011;49573;47.682;9.170;2023-09-08T16:15:49;7.07;;;6.35;;
63444;SDS011;49573;47.682;9.170;2023-09-08T16:18:35;6.97;;;6.25;;
63444;SDS011;49573;47.682;9.170;2023-09-08T16:21:21;8.23;;;6.53;;
63444;SDS011;49573;47.682;9.170;2023-09-08T16:24:07;7.30;;;6.60;;
63444;SDS011;49573;47.682;9.170;2023-09-08T16:26:55;7.70;;;6.55;;
63444;SDS011;49573;47.682;9.170;2023-09-08T16:29:43;8.43;;;6.60;;
63444;SDS011;49573;47.682;9.170;2023-09-08T16:32:30;6.72;;;6.13;;
63444;SDS011;49573;47.682;9.170;2023-09-08T16:35:17;8.80;;;6.47;;
63444;SDS011;49573;47.682;9.170;2023-09-08T16:38:04;6.70;;;6.10;;
63444;SDS011;49573;47.682;9.170;2023-09-08T16:40:50;7.20;;;5.97;;
63444;SDS011;49573;47.682;9.170;2023-09-08T16:43:37;7.05;;;6.28;;
63444;SDS011;49573;47.682;9.170;2023-09-08T16:46:23;6.45;;;5.57;;
63444;SDS011;49573;47.682;9.170;2023-09-08T16:49:09;7.57;;;6.60;;
63444;SDS011;49573;47.682;9.170;2023-09-08T16:51:55;6.90;;;6.30;;
63444;SDS011;49573;47.682;9.170;2023-09-08T16:54:42;6.70;;;6.10;;
63444;SDS011;49573;47.682;9.170;2023-09-08T16:57:30;6.90;;;6.30;;
63444;SDS011;49573;47.682;9.170;2023-09-08T17:00:18;8.70;;;6.70;;
63444;SDS011;49573;47.682;9.170;2023-09-08T17:03:04;6.82;;;6.22;;
63444;SDS011;49573;47.682;9.170;2023-09-08T17:05:51;8.00;;;6.40;;
63444;SDS011;49573;47.682;9.170;2023-09-08T17:08:37;7.93;;;6.90;;
63444;SDS011;49573;47.682;9.170;2023-09-08T17:11:23;7.43;;;6.43;;
63444;SDS011;49573;47.682;9.170;2023-09-08T17:14:09;6.95;;;6.25;;
63444;SDS011;49573;47.682;9.170;2023-09-08T17:16:56;7.68;;;6.50;;
63444;SDS011;49573;47.682;9.170;2023-09-08T17:19:42;8.02;;;7.22;;
63444;SDS011;49573;47.682;9.170;2023-09-08T17:22:28;8.02;;;6.70;;